sensor_id;sensor_type;location;lat;lon;timestamp;P1;durP1;ratioP1;P2;durP2;ratioP2
25187;SDS011;13141;50.414;8.050;2023-05-29T00:02:10;0.10;;;0.10;;
25187;SDS011;13141;50.414;8.050;2023-05-29T00:04:36;0.10;;;0.10;;
25187;SDS011;13141;50.414;8.050;2023-05-29T00:07:02;0.10;;;0.10;;
25187;SDS011;13141;50.414;8.050;2023-05-29T00:09:28;0.10;;;0.10;;
25187;SDS011;13141;50.414;8.050;2023-05-29T00:11:53;0.10;;;0.10;;
25187;SDS011;13141;50.414;8.050;2023-05-29T00:14:19;0.10;;;0.10;;
25187;SDS011;13141;50.414;8.050;2023-05-29T00:16:45;0.10;;;0.10;;
25187;SDS011;13141;50.414;8.050;2023-05-29T00:19:12;0.10;;;0.10;;
25187;SDS011;13141;50.414;8.050;2023-05-29T00:21:37;0.10;;;0.10;;
25187;SDS011;13141;50.414;8.050;2023-05-29T00:24:03;0.10;;;0.10;;
25187;SDS011;13141;50.414;8.050;2023-05-29T00:26:29;0.10;;;0.10;;
25187;SDS011;13141;50.414;8.050;2023-05-29T00:28:55;0.10;;;0.10;;
25187;SDS011;13141;50.414;8.050;2023-05-29T00:31:20;0.10;;;0.10;;
25187;SDS011;13141;50.414;8.050;2023-05-29T00:33:46;0.10;;;0.10;;
25187;SDS011;13141;50.414;8.050;2023-05-29T00:36:13;0.10;;;0.10;;
25187;SDS011;13141;50.414;8.050;2023-05-29T00:38:38;0.03;;;0.03;;
25187;SDS011;13141;50.414;8.050;2023-05-29T00:41:04;0.10;;;0.10;;
25187;SDS011;13141;50.414;8.050;2023-05-29T00:43:30;0.13;;;0.13;;
25187;SDS011;13141;50.414;8.050;2023-05-29T00:45:56;0.10;;;0.10;;
25187;SDS011;13141;50.414;8.050;2023-05-29T00:48:21;0.10;;;0.10;;
25187;SDS011;13141;50.414;8.050;2023-05-29T00:50:47;0.15;;;0.15;;
25187;SDS011;13141;50.414;8.050;2023-05-29T00:53:15;0.10;;;0.10;;
25187;SDS011;13141;50.414;8.050;2023-05-29T00:55:41;0.10;;;0.10;;
25187;SDS011;13141;50.414;8.050;2023-05-29T00:58:07;0.10;;;0.10;;
25187;SDS011;13141;50.414;8.050;2023-05-29T01:00:32;0.10;;;0.10;;
25187;SDS011;13141;50.414;8.050;2023-05-29T01:02:58;0.10;;;0.10;;
25187;SDS011;13141;50.414;8.050;2023-05-29T01:05:25;0.10;;;0.10;;
25187;SDS011;13141;50.414;8.050;2023-05-29T01:07:51;0.10;;;0.10;;
25187;SDS011;13141;50.414;8.050;2023-05-29T01:10:18;0.10;;;0.10;;
25187;SDS011;13141;50.414;8.050;2023-05-29T01:12:46;0.10;;;0.10;;
25187;SDS011;13141;50.414;8.050;2023-05-29T01:15:18;0.10;;;0.10;;
25187;SDS011;13141;50.414;8.050;2023-05-29T01:18:00;0.10;;;0.10;;
25187;SDS011;13141;50.414;8.050;2023-05-29T01:20:44;0.10;;;0.10;;
25187;SDS011;13141;50.414;8.050;2023-05-29T01:26:42;0.10;;;0.10;;
25187;SDS011;13141;50.414;8.050;2023-05-29T01:29:12;0.10;;;0.10;;
25187;SDS011;13141;50.414;8.050;2023-05-29T01:31:39;0.10;;;0.10;;
25187;SDS011;13141;50.414;8.050;2023-05-29T01:34:06;0.20;;;0.20;;
25187;SDS011;13141;50.414;8.050;2023-05-29T01:36:32;0.10;;;0.10;;
25187;SDS011;13141;50.414;8.050;2023-05-29T01:38:58;0.10;;;0.10;;
25187;SDS011;13141;50.414;8.050;2023-05-29T01:41:24;0.10;;;0.10;;
25187;SDS011;13141;50.414;8.050;2023-05-29T01:43:52;0.10;;;0.10;;
25187;SDS011;13141;50.414;8.050;2023-05-29T01:46:19;0.10;;;0.10;;
25187;SDS011;13141;50.414;8.050;2023-05-29T01:48:46;0.10;;;0.10;;
25187;SDS011;13141;50.414;8.050;2023-05-29T01:51:12;0.10;;;0.10;;
25187;SDS011;13141;50.414;8.050;2023-05-29T01:53:38;0.10;;;0.10;;
25187;SDS011;13141;50.414;8.050;2023-05-29T01:56:05;0.10;;;0.10;;
25187;SDS011;13141;50.414;8.050;2023-05-29T01:58:31;0.10;;;0.10;;
25187;SDS011;13141;50.414;8.050;2023-05-29T02:00:59;0.10;;;0.10;;
25187;SDS011;13141;50.414;8.050;2023-05-29T02:03:26;0.10;;;0.10;;
25187;SDS011;13141;50.414;8.050;2023-05-29T02:05:51;0.10;;;0.10;;
25187;SDS011;13141;50.414;8.050;2023-05-29T02:08:17;0.10;;;0.10;;
25187;SDS011;13141;50.414;8.050;2023-05-29T02:10:43;0.10;;;0.10;;
25187;SDS011;13141;50.414;8.050;2023-05-29T02:13:08;0.10;;;0.10;;
25187;SDS011;13141;50.414;8.050;2023-05-29T02:15:34;0.10;;;0.10;;
25187;SDS011;13141;50.414;8.050;2023-05-29T02:18:01;0.10;;;0.10;;
25187;SDS011;13141;50.414;8.050;2023-05-29T02:20:26;0.10;;;0.10;;
25187;SDS011;13141;50.414;8.050;2023-05-29T02:22:52;0.10;;;0.10;;
25187;SDS011;13141;50.414;8.050;2023-05-29T02:25:18;0.10;;;0.10;;
25187;SDS011;13141;50.414;8.050;2023-05-29T02:27:44;0.13;;;0.13;;
25187;SDS011;13141;50.414;8.050;2023-05-29T02:30:10;0.10;;;0.10;;
25187;SDS011;13141;50.414;8.050;2023-05-29T02:32:36;0.10;;;0.10;;
25187;SDS011;13141;50.414;8.050;2023-05-29T02:35:03;0.10;;;0.10;;
25187;SDS011;13141;50.414;8.050;2023-05-29T02:37:29;0.10;;;0.10;;
25187;SDS011;13141;50.414;8.050;2023-05-29T02:39:54;0.10;;;0.10;;
25187;SDS011;13141;50.414;8.050;2023-05-29T02:42:20;0.10;;;0.10;;
25187;SDS011;13141;50.414;8.050;2023-05-29T02:44:46;0.10;;;0.10;;
25187;SDS011;13141;50.414;8.050;2023-05-29T02:47:11;0.00;;;0.00;;
25187;SDS011;13141;50.414;8.050;2023-05-29T02:49:37;0.10;;;0.10;;
25187;SDS011;13141;50.414;8.050;2023-05-29T02:52:05;0.10;;;0.10;;
25187;SDS011;13141;50.414;8.050;2023-05-29T02:54:31;0.10;;;0.10;;
25187;SDS011;13141;50.414;8.050;2023-05-29T02:56:56;0.10;;;0.10;;
25187;SDS011;13141;50.414;8.050;2023-05-29T02:59:22;0.10;;;0.10;;
25187;SDS011;13141;50.414;8.050;2023-05-29T03:01:47;0.10;;;0.10;;
25187;SDS011;13141;50.414;8.050;2023-05-29T03:04:13;0.10;;;0.10;;
25187;SDS011;13141;50.414;8.050;2023-05-29T03:06:39;0.10;;;0.10;;
25187;SDS011;13141;50.414;8.050;2023-05-29T03:09:06;0.10;;;0.10;;
25187;SDS011;13141;50.414;8.050;2023-05-29T03:11:31;0.10;;;0.10;;
25187;SDS011;13141;50.414;8.050;2023-05-29T03:13:57;0.10;;;0.10;;
25187;SDS011;13141;50.414;8.050;2023-05-29T03:16:23;0.10;;;0.10;;
25187;SDS011;13141;50.414;8.050;2023-05-29T03:18:49;0.10;;;0.10;;
25187;SDS011;13141;50.414;8.050;2023-05-29T03:21:15;0.10;;;0.10;;
25187;SDS011;13141;50.414;8.050;2023-05-29T03:23:41;0.10;;;0.10;;
25187;SDS011;13141;50.414;8.050;2023-05-29T03:26:08;0.10;;;0.10;;
25187;SDS011;13141;50.414;8.050;2023-05-29T03:28:34;0.10;;;0.10;;
25187;SDS011;13141;50.414;8.050;2023-05-29T03:30:59;0.10;;;0.10;;
25187;SDS011;13141;50.414;8.050;2023-05-29T03:33:25;0.10;;;0.10;;
25187;SDS011;13141;50.414;8.050;2023-05-29T03:35:51;0.10;;;0.10;;
25187;SDS011;13141;50.414;8.050;2023-05-29T03:38:16;0.10;;;0.10;;
25187;SDS011;13141;50.414;8.050;2023-05-29T03:40:42;0.10;;;0.10;;
25187;SDS011;13141;50.414;8.050;2023-05-29T03:43:09;0.10;;;0.10;;
25187;SDS011;13141;50.414;8.050;2023-05-29T03:45:35;0.10;;;0.10;;
25187;SDS011;13141;50.414;8.050;2023-05-29T03:48:01;0.20;;;0.20;;
25187;SDS011;13141;50.414;8.050;2023-05-29T03:50:26;0.10;;;0.10;;
25187;SDS011;13141;50.414;8.050;2023-05-29T03:52:52;0.10;;;0.10;;
25187;SDS011;13141;50.414;8.050;2023-05-29T03:55:18;0.15;;;0.15;;
25187;SDS011;13141;50.414;8.050;2023-05-29T03:57:43;0.17;;;0.17;;
25187;SDS011;13141;50.414;8.050;2023-05-29T04:00:11;0.10;;;0.10;;
25187;SDS011;13141;50.414;8.050;2023-05-29T04:02:37;0.10;;;0.10;;
25187;SDS011;13141;50.414;8.050;2023-05-29T04:05:04;0.10;;;0.10;;
25187;SDS011;13141;50.414;8.050;2023-05-29T04:07:30;0.10;;;0.10;;
25187;SDS011;13141;50.414;8.050;2023-05-29T04:09:55;0.10;;;0.10;;
25187;SDS011;13141;50.414;8.050;2023-05-29T04:12:21;0.10;;;0.10;;
25187;SDS011;13141;50.414;8.050;2023-05-29T04:14:47;0.10;;;0.10;;
25187;SDS011;13141;50.414;8.050;2023-05-29T04:17:16;0.10;;;0.10;;
25187;SDS011;13141;50.414;8.050;2023-05-29T04:19:42;0.10;;;0.10;;
25187;SDS011;13141;50.414;8.050;2023-05-29T04:22:08;0.10;;;0.10;;
25187;SDS011;13141;50.414;8.050;2023-05-29T04:24:34;0.10;;;0.10;;
25187;SDS011;13141;50.414;8.050;2023-05-29T04:27:00;0.10;;;0.10;;
25187;SDS011;13141;50.414;8.050;2023-05-29T04:29:25;0.10;;;0.10;;
25187;SDS011;13141;50.414;8.050;2023-05-29T04:31:51;0.10;;;0.10;;
25187;SDS011;13141;50.414;8.050;2023-05-29T04:34:18;0.10;;;0.10;;
25187;SDS011;13141;50.414;8.050;2023-05-29T04:36:43;0.17;;;0.17;;
25187;SDS011;13141;50.414;8.050;2023-05-29T04:39:09;0.10;;;0.10;;
25187;SDS011;13141;50.414;8.050;2023-05-29T04:41:35;0.10;;;0.10;;
25187;SDS011;13141;50.414;8.050;2023-05-29T04:44:01;0.10;;;0.10;;
25187;SDS011;13141;50.414;8.050;2023-05-29T04:46:26;0.10;;;0.10;;
25187;SDS011;13141;50.414;8.050;2023-05-29T04:48:52;0.10;;;0.10;;
25187;SDS011;13141;50.414;8.050;2023-05-29T04:51:19;0.10;;;0.10;;
25187;SDS011;13141;50.414;8.050;2023-05-29T04:53:45;0.10;;;0.10;;
25187;SDS011;13141;50.414;8.050;2023-05-29T04:56:11;0.10;;;0.10;;
25187;SDS011;13141;50.414;8.050;2023-05-29T04:58:36;0.10;;;0.10;;
25187;SDS011;13141;50.414;8.050;2023-05-29T05:01:02;0.10;;;0.10;;
25187;SDS011;13141;50.414;8.050;2023-05-29T05:03:28;0.17;;;0.17;;
25187;SDS011;13141;50.414;8.050;2023-05-29T05:05:54;0.10;;;0.10;;
25187;SDS011;13141;50.414;8.050;2023-05-29T05:08:21;0.10;;;0.10;;
25187;SDS011;13141;50.414;8.050;2023-05-29T05:10:47;0.10;;;0.10;;
25187;SDS011;13141;50.414;8.050;2023-05-29T05:13:13;0.10;;;0.10;;
25187;SDS011;13141;50.414;8.050;2023-05-29T05:15:38;0.13;;;0.13;;
25187;SDS011;13141;50.414;8.050;2023-05-29T05:18:04;0.10;;;0.10;;
25187;SDS011;13141;50.414;8.050;2023-05-29T05:20:30;0.10;;;0.10;;
25187;SDS011;13141;50.414;8.050;2023-05-29T05:22:56;0.10;;;0.10;;
25187;SDS011;13141;50.414;8.050;2023-05-29T05:25:24;0.10;;;0.10;;
25187;SDS011;13141;50.414;8.050;2023-05-29T05:27:49;0.10;;;0.10;;
25187;SDS011;13141;50.414;8.050;2023-05-29T05:30:15;0.10;;;0.10;;
25187;SDS011;13141;50.414;8.050;2023-05-29T05:32:40;0.10;;;0.10;;
25187;SDS011;13141;50.414;8.050;2023-05-29T05:35:06;0.10;;;0.10;;
25187;SDS011;13141;50.414;8.050;2023-05-29T05:37:32;0.10;;;0.10;;
25187;SDS011;13141;50.414;8.050;2023-05-29T05:39:58;0.10;;;0.10;;
25187;SDS011;13141;50.414;8.050;2023-05-29T05:42:25;0.10;;;0.10;;
25187;SDS011;13141;50.414;8.050;2023-05-29T05:44:52;0.10;;;0.10;;
25187;SDS011;13141;50.414;8.050;2023-05-29T05:47:18;0.10;;;0.10;;
25187;SDS011;13141;50.414;8.050;2023-05-29T05:49:43;0.10;;;0.10;;
25187;SDS011;13141;50.414;8.050;2023-05-29T05:52:09;0.10;;;0.10;;
25187;SDS011;13141;50.414;8.050;2023-05-29T05:54:34;0.10;;;0.10;;
25187;SDS011;13141;50.414;8.050;2023-05-29T05:57:00;0.10;;;0.10;;
25187;SDS011;13141;50.414;8.050;2023-05-29T05:59:27;0.10;;;0.10;;
25187;SDS011;13141;50.414;8.050;2023-05-29T06:01:52;0.10;;;0.10;;
25187;SDS011;13141;50.414;8.050;2023-05-29T06:04:18;0.10;;;0.10;;
25187;SDS011;13141;50.414;8.050;2023-05-29T06:06:44;0.10;;;0.10;;
25187;SDS011;13141;50.414;8.050;2023-05-29T06:09:10;0.10;;;0.10;;
25187;SDS011;13141;50.414;8.050;2023-05-29T06:11:35;0.10;;;0.10;;
25187;SDS011;13141;50.414;8.050;2023-05-29T06:14:01;0.17;;;0.17;;
25187;SDS011;13141;50.414;8.050;2023-05-29T06:16:28;0.10;;;0.10;;
25187;SDS011;13141;50.414;8.050;2023-05-29T06:18:54;0.10;;;0.10;;
25187;SDS011;13141;50.414;8.050;2023-05-29T06:21:20;0.10;;;0.10;;
25187;SDS011;13141;50.414;8.050;2023-05-29T06:23:46;0.10;;;0.10;;
25187;SDS011;13141;50.414;8.050;2023-05-29T06:26:11;0.10;;;0.10;;
25187;SDS011;13141;50.414;8.050;2023-05-29T06:28:37;0.10;;;0.10;;
25187;SDS011;13141;50.414;8.050;2023-05-29T06:31:02;0.10;;;0.10;;
25187;SDS011;13141;50.414;8.050;2023-05-29T06:33:30;0.10;;;0.10;;
25187;SDS011;13141;50.414;8.050;2023-05-29T06:35:55;0.10;;;0.10;;
25187;SDS011;13141;50.414;8.050;2023-05-29T06:38:21;0.10;;;0.10;;
25187;SDS011;13141;50.414;8.050;2023-05-29T06:40:46;0.10;;;0.10;;
25187;SDS011;13141;50.414;8.050;2023-05-29T06:43:12;0.10;;;0.10;;
25187;SDS011;13141;50.414;8.050;2023-05-29T06:45:38;0.10;;;0.10;;
25187;SDS011;13141;50.414;8.050;2023-05-29T06:48:03;0.10;;;0.10;;
25187;SDS011;13141;50.414;8.050;2023-05-29T06:50:31;0.10;;;0.10;;
25187;SDS011;13141;50.414;8.050;2023-05-29T06:52:56;0.10;;;0.10;;
25187;SDS011;13141;50.414;8.050;2023-05-29T06:55:22;0.10;;;0.10;;
25187;SDS011;13141;50.414;8.050;2023-05-29T06:57:48;0.10;;;0.10;;
25187;SDS011;13141;50.414;8.050;2023-05-29T07:00:14;0.10;;;0.10;;
25187;SDS011;13141;50.414;8.050;2023-05-29T07:02:40;0.10;;;0.10;;
25187;SDS011;13141;50.414;8.050;2023-05-29T07:05:06;0.20;;;0.20;;
25187;SDS011;13141;50.414;8.050;2023-05-29T07:07:33;0.10;;;0.10;;
25187;SDS011;13141;50.414;8.050;2023-05-29T07:09:59;0.10;;;0.10;;
25187;SDS011;13141;50.414;8.050;2023-05-29T07:12:24;0.10;;;0.10;;
25187;SDS011;13141;50.414;8.050;2023-05-29T07:14:50;0.10;;;0.10;;
25187;SDS011;13141;50.414;8.050;2023-05-29T07:17:16;0.10;;;0.10;;
25187;SDS011;13141;50.414;8.050;2023-05-29T07:19:42;0.10;;;0.10;;
25187;SDS011;13141;50.414;8.050;2023-05-29T07:22:08;0.10;;;0.10;;
25187;SDS011;13141;50.414;8.050;2023-05-29T07:24:35;0.10;;;0.10;;
25187;SDS011;13141;50.414;8.050;2023-05-29T07:27:01;0.10;;;0.10;;
25187;SDS011;13141;50.414;8.050;2023-05-29T07:29:26;0.10;;;0.10;;
25187;SDS011;13141;50.414;8.050;2023-05-29T07:31:52;0.10;;;0.10;;
25187;SDS011;13141;50.414;8.050;2023-05-29T07:34:18;0.20;;;0.20;;
25187;SDS011;13141;50.414;8.050;2023-05-29T07:36:56;0.10;;;0.10;;
25187;SDS011;13141;50.414;8.050;2023-05-29T07:39:23;0.10;;;0.10;;
25187;SDS011;13141;50.414;8.050;2023-05-29T07:41:50;0.10;;;0.10;;
25187;SDS011;13141;50.414;8.050;2023-05-29T07:44:16;0.10;;;0.10;;
25187;SDS011;13141;50.414;8.050;2023-05-29T07:46:41;0.08;;;0.08;;
25187;SDS011;13141;50.414;8.050;2023-05-29T07:49:07;0.10;;;0.10;;
25187;SDS011;13141;50.414;8.050;2023-05-29T07:51:33;0.10;;;0.10;;
25187;SDS011;13141;50.414;8.050;2023-05-29T07:53:58;0.10;;;0.10;;
25187;SDS011;13141;50.414;8.050;2023-05-29T07:56:24;0.10;;;0.10;;
25187;SDS011;13141;50.414;8.050;2023-05-29T07:58:51;0.20;;;0.20;;
25187;SDS011;13141;50.414;8.050;2023-05-29T08:01:17;0.10;;;0.10;;
25187;SDS011;13141;50.414;8.050;2023-05-29T08:03:42;0.10;;;0.10;;
25187;SDS011;13141;50.414;8.050;2023-05-29T08:06:08;0.20;;;0.20;;
25187;SDS011;13141;50.414;8.050;2023-05-29T08:08:34;0.10;;;0.10;;
25187;SDS011;13141;50.414;8.050;2023-05-29T08:10:59;0.10;;;0.10;;
25187;SDS011;13141;50.414;8.050;2023-05-29T08:13:25;0.20;;;0.20;;
25187;SDS011;13141;50.414;8.050;2023-05-29T08:15:52;0.20;;;0.20;;
25187;SDS011;13141;50.414;8.050;2023-05-29T08:18:18;0.10;;;0.10;;
25187;SDS011;13141;50.414;8.050;2023-05-29T08:20:43;0.10;;;0.10;;
25187;SDS011;13141;50.414;8.050;2023-05-29T08:23:09;0.10;;;0.10;;
25187;SDS011;13141;50.414;8.050;2023-05-29T08:25:35;0.10;;;0.10;;
25187;SDS011;13141;50.414;8.050;2023-05-29T08:28:00;0.10;;;0.10;;
25187;SDS011;13141;50.414;8.050;2023-05-29T08:30:26;0.10;;;0.10;;
25187;SDS011;13141;50.414;8.050;2023-05-29T08:32:54;0.10;;;0.10;;
25187;SDS011;13141;50.414;8.050;2023-05-29T08:35:19;0.10;;;0.10;;
25187;SDS011;13141;50.414;8.050;2023-05-29T08:37:45;0.10;;;0.10;;
25187;SDS011;13141;50.414;8.050;2023-05-29T08:40:10;0.10;;;0.10;;
25187;SDS011;13141;50.414;8.050;2023-05-29T08:42:39;0.10;;;0.10;;
25187;SDS011;13141;50.414;8.050;2023-05-29T08:45:10;0.10;;;0.10;;
25187;SDS011;13141;50.414;8.050;2023-05-29T08:47:38;0.10;;;0.10;;
25187;SDS011;13141;50.414;8.050;2023-05-29T08:50:07;0.10;;;0.10;;
25187;SDS011;13141;50.414;8.050;2023-05-29T08:52:34;0.10;;;0.10;;
25187;SDS011;13141;50.414;8.050;2023-05-29T08:55:00;0.10;;;0.10;;
25187;SDS011;13141;50.414;8.050;2023-05-29T08:57:27;0.13;;;0.13;;
25187;SDS011;13141;50.414;8.050;2023-05-29T08:59:54;0.10;;;0.10;;
25187;SDS011;13141;50.414;8.050;2023-05-29T09:02:21;0.10;;;0.10;;
25187;SDS011;13141;50.414;8.050;2023-05-29T09:04:47;0.10;;;0.10;;
25187;SDS011;13141;50.414;8.050;2023-05-29T09:07:14;0.10;;;0.10;;
25187;SDS011;13141;50.414;8.050;2023-05-29T09:09:40;0.10;;;0.10;;
25187;SDS011;13141;50.414;8.050;2023-05-29T09:12:06;0.20;;;0.20;;
25187;SDS011;13141;50.414;8.050;2023-05-29T09:14:32;0.20;;;0.20;;
25187;SDS011;13141;50.414;8.050;2023-05-29T09:16:58;0.20;;;0.20;;
25187;SDS011;13141;50.414;8.050;2023-05-29T09:19:24;0.10;;;0.10;;
25187;SDS011;13141;50.414;8.050;2023-05-29T09:21:50;0.10;;;0.10;;
25187;SDS011;13141;50.414;8.050;2023-05-29T09:24:17;0.20;;;0.20;;
25187;SDS011;13141;50.414;8.050;2023-05-29T09:26:48;0.20;;;0.20;;
25187;SDS011;13141;50.414;8.050;2023-05-29T09:29:15;0.10;;;0.10;;
25187;SDS011;13141;50.414;8.050;2023-05-29T09:31:44;0.20;;;0.20;;
25187;SDS011;13141;50.414;8.050;2023-05-29T09:34:11;0.10;;;0.10;;
25187;SDS011;13141;50.414;8.050;2023-05-29T09:36:37;0.10;;;0.10;;
25187;SDS011;13141;50.414;8.050;2023-05-29T09:39:03;0.17;;;0.17;;
25187;SDS011;13141;50.414;8.050;2023-05-29T09:41:30;0.20;;;0.20;;
25187;SDS011;13141;50.414;8.050;2023-05-29T09:43:55;0.10;;;0.10;;
25187;SDS011;13141;50.414;8.050;2023-05-29T09:46:21;0.20;;;0.20;;
25187;SDS011;13141;50.414;8.050;2023-05-29T09:48:47;0.20;;;0.20;;
25187;SDS011;13141;50.414;8.050;2023-05-29T09:51:20;0.10;;;0.10;;
25187;SDS011;13141;50.414;8.050;2023-05-29T09:53:46;0.20;;;0.20;;
25187;SDS011;13141;50.414;8.050;2023-05-29T09:56:11;0.20;;;0.20;;
25187;SDS011;13141;50.414;8.050;2023-05-29T09:58:39;0.20;;;0.20;;
25187;SDS011;13141;50.414;8.050;2023-05-29T10:01:07;0.20;;;0.20;;
25187;SDS011;13141;50.414;8.050;2023-05-29T10:03:32;0.20;;;0.20;;
25187;SDS011;13141;50.414;8.050;2023-05-29T10:05:58;0.20;;;0.20;;
25187;SDS011;13141;50.414;8.050;2023-05-29T10:08:24;0.13;;;0.13;;
25187;SDS011;13141;50.414;8.050;2023-05-29T10:10:52;0.10;;;0.10;;
25187;SDS011;13141;50.414;8.050;2023-05-29T10:13:23;0.20;;;0.20;;
25187;SDS011;13141;50.414;8.050;2023-05-29T10:15:54;0.20;;;0.20;;
25187;SDS011;13141;50.414;8.050;2023-05-29T10:18:22;0.10;;;0.10;;
25187;SDS011;13141;50.414;8.050;2023-05-29T10:20:51;0.20;;;0.20;;
25187;SDS011;13141;50.414;8.050;2023-05-29T10:23:18;0.20;;;0.20;;
25187;SDS011;13141;50.414;8.050;2023-05-29T10:25:47;0.20;;;0.20;;
25187;SDS011;13141;50.414;8.050;2023-05-29T10:28:16;0.13;;;0.13;;
25187;SDS011;13141;50.414;8.050;2023-05-29T10:30:45;0.28;;;0.28;;
25187;SDS011;13141;50.414;8.050;2023-05-29T10:33:22;0.20;;;0.20;;
25187;SDS011;13141;50.414;8.050;2023-05-29T10:36:01;0.20;;;0.20;;
25187;SDS011;13141;50.414;8.050;2023-05-29T10:38:32;0.13;;;0.13;;
25187;SDS011;13141;50.414;8.050;2023-05-29T10:41:04;0.10;;;0.10;;
25187;SDS011;13141;50.414;8.050;2023-05-29T10:43:53;0.20;;;0.20;;
25187;SDS011;13141;50.414;8.050;2023-05-29T10:46:19;0.20;;;0.20;;
25187;SDS011;13141;50.414;8.050;2023-05-29T10:48:48;0.20;;;0.20;;
25187;SDS011;13141;50.414;8.050;2023-05-29T10:51:24;0.20;;;0.20;;
25187;SDS011;13141;50.414;8.050;2023-05-29T10:53:51;0.22;;;0.22;;
25187;SDS011;13141;50.414;8.050;2023-05-29T10:56:20;0.20;;;0.20;;
25187;SDS011;13141;50.414;8.050;2023-05-29T10:58:49;0.20;;;0.20;;
25187;SDS011;13141;50.414;8.050;2023-05-29T11:01:17;0.20;;;0.20;;
25187;SDS011;13141;50.414;8.050;2023-05-29T11:03:48;0.17;;;0.17;;
25187;SDS011;13141;50.414;8.050;2023-05-29T11:06:17;0.30;;;0.30;;
25187;SDS011;13141;50.414;8.050;2023-05-29T11:08:44;0.20;;;0.20;;
25187;SDS011;13141;50.414;8.050;2023-05-29T11:11:11;0.10;;;0.10;;
25187;SDS011;13141;50.414;8.050;2023-05-29T11:13:37;0.28;;;0.28;;
25187;SDS011;13141;50.414;8.050;2023-05-29T11:16:09;0.10;;;0.10;;
25187;SDS011;13141;50.414;8.050;2023-05-29T11:18:38;0.28;;;0.28;;
25187;SDS011;13141;50.414;8.050;2023-05-29T11:21:06;0.20;;;0.20;;
25187;SDS011;13141;50.414;8.050;2023-05-29T11:23:52;0.20;;;0.20;;
25187;SDS011;13141;50.414;8.050;2023-05-29T11:26:19;0.20;;;0.20;;
25187;SDS011;13141;50.414;8.050;2023-05-29T11:28:45;0.30;;;0.30;;
25187;SDS011;13141;50.414;8.050;2023-05-29T11:31:11;0.30;;;0.30;;
25187;SDS011;13141;50.414;8.050;2023-05-29T11:33:39;0.20;;;0.20;;
25187;SDS011;13141;50.414;8.050;2023-05-29T11:36:08;0.30;;;0.30;;
25187;SDS011;13141;50.414;8.050;2023-05-29T11:38:34;0.20;;;0.20;;
25187;SDS011;13141;50.414;8.050;2023-05-29T11:41:01;0.20;;;0.20;;
25187;SDS011;13141;50.414;8.050;2023-05-29T11:43:27;0.20;;;0.20;;
25187;SDS011;13141;50.414;8.050;2023-05-29T11:45:53;0.30;;;0.30;;
25187;SDS011;13141;50.414;8.050;2023-05-29T11:48:19;0.20;;;0.20;;
25187;SDS011;13141;50.414;8.050;2023-05-29T11:50:45;0.30;;;0.30;;
25187;SDS011;13141;50.414;8.050;2023-05-29T11:53:12;0.20;;;0.20;;
25187;SDS011;13141;50.414;8.050;2023-05-29T11:55:37;0.30;;;0.30;;
25187;SDS011;13141;50.414;8.050;2023-05-29T11:58:03;0.30;;;0.30;;
25187;SDS011;13141;50.414;8.050;2023-05-29T12:00:30;0.20;;;0.20;;
25187;SDS011;13141;50.414;8.050;2023-05-29T12:02:57;0.40;;;0.40;;
25187;SDS011;13141;50.414;8.050;2023-05-29T12:05:24;0.20;;;0.20;;
25187;SDS011;13141;50.414;8.050;2023-05-29T12:07:50;0.20;;;0.20;;
25187;SDS011;13141;50.414;8.050;2023-05-29T12:10:21;0.20;;;0.20;;
25187;SDS011;13141;50.414;8.050;2023-05-29T12:12:47;0.20;;;0.20;;
25187;SDS011;13141;50.414;8.050;2023-05-29T12:15:14;0.20;;;0.20;;
25187;SDS011;13141;50.414;8.050;2023-05-29T12:17:40;0.20;;;0.20;;
25187;SDS011;13141;50.414;8.050;2023-05-29T12:20:08;0.30;;;0.30;;
25187;SDS011;13141;50.414;8.050;2023-05-29T12:22:35;0.30;;;0.30;;
25187;SDS011;13141;50.414;8.050;2023-05-29T12:25:07;0.20;;;0.20;;
25187;SDS011;13141;50.414;8.050;2023-05-29T12:27:36;0.20;;;0.20;;
25187;SDS011;13141;50.414;8.050;2023-05-29T12:30:03;0.20;;;0.20;;
25187;SDS011;13141;50.414;8.050;2023-05-29T12:32:33;0.30;;;0.30;;
25187;SDS011;13141;50.414;8.050;2023-05-29T12:35:00;0.30;;;0.30;;
25187;SDS011;13141;50.414;8.050;2023-05-29T12:37:26;0.20;;;0.20;;
25187;SDS011;13141;50.414;8.050;2023-05-29T12:40:10;0.30;;;0.30;;
25187;SDS011;13141;50.414;8.050;2023-05-29T12:42:40;0.22;;;0.22;;
25187;SDS011;13141;50.414;8.050;2023-05-29T12:45:06;0.20;;;0.20;;
25187;SDS011;13141;50.414;8.050;2023-05-29T12:47:32;0.28;;;0.28;;
25187;SDS011;13141;50.414;8.050;2023-05-29T12:49:58;0.20;;;0.20;;
25187;SDS011;13141;50.414;8.050;2023-05-29T12:52:24;0.20;;;0.20;;
25187;SDS011;13141;50.414;8.050;2023-05-29T12:54:49;0.20;;;0.20;;
25187;SDS011;13141;50.414;8.050;2023-05-29T12:57:15;0.30;;;0.30;;
25187;SDS011;13141;50.414;8.050;2023-05-29T12:59:42;0.28;;;0.28;;
25187;SDS011;13141;50.414;8.050;2023-05-29T13:02:08;0.20;;;0.20;;
25187;SDS011;13141;50.414;8.050;2023-05-29T13:04:33;0.25;;;0.25;;
25187;SDS011;13141;50.414;8.050;2023-05-29T13:06:59;0.30;;;0.30;;
25187;SDS011;13141;50.414;8.050;2023-05-29T13:09:25;0.20;;;0.20;;
25187;SDS011;13141;50.414;8.050;2023-05-29T13:11:50;0.28;;;0.28;;
25187;SDS011;13141;50.414;8.050;2023-05-29T13:14:16;0.20;;;0.20;;
25187;SDS011;13141;50.414;8.050;2023-05-29T13:16:43;0.20;;;0.20;;
25187;SDS011;13141;50.414;8.050;2023-05-29T13:19:09;0.20;;;0.20;;
25187;SDS011;13141;50.414;8.050;2023-05-29T13:21:34;0.28;;;0.28;;
25187;SDS011;13141;50.414;8.050;2023-05-29T13:24:00;0.20;;;0.20;;
25187;SDS011;13141;50.414;8.050;2023-05-29T13:26:26;0.30;;;0.30;;
25187;SDS011;13141;50.414;8.050;2023-05-29T13:28:51;0.20;;;0.20;;
25187;SDS011;13141;50.414;8.050;2023-05-29T13:31:17;0.20;;;0.20;;
25187;SDS011;13141;50.414;8.050;2023-05-29T13:33:44;0.30;;;0.30;;
25187;SDS011;13141;50.414;8.050;2023-05-29T13:36:10;0.30;;;0.30;;
25187;SDS011;13141;50.414;8.050;2023-05-29T13:38:35;0.37;;;0.37;;
25187;SDS011;13141;50.414;8.050;2023-05-29T13:41:01;0.20;;;0.20;;
25187;SDS011;13141;50.414;8.050;2023-05-29T13:43:27;0.20;;;0.20;;
25187;SDS011;13141;50.414;8.050;2023-05-29T13:45:52;0.25;;;0.25;;
25187;SDS011;13141;50.414;8.050;2023-05-29T13:48:18;0.20;;;0.20;;
25187;SDS011;13141;50.414;8.050;2023-05-29T13:50:45;0.35;;;0.35;;
25187;SDS011;13141;50.414;8.050;2023-05-29T13:53:10;0.20;;;0.20;;
25187;SDS011;13141;50.414;8.050;2023-05-29T13:55:36;0.30;;;0.30;;
25187;SDS011;13141;50.414;8.050;2023-05-29T13:58:02;0.30;;;0.30;;
25187;SDS011;13141;50.414;8.050;2023-05-29T14:00:28;0.22;;;0.22;;
25187;SDS011;13141;50.414;8.050;2023-05-29T14:02:54;0.28;;;0.28;;
25187;SDS011;13141;50.414;8.050;2023-05-29T14:05:20;0.30;;;0.30;;
25187;SDS011;13141;50.414;8.050;2023-05-29T14:07:47;0.30;;;0.30;;
25187;SDS011;13141;50.414;8.050;2023-05-29T14:10:12;0.20;;;0.20;;
25187;SDS011;13141;50.414;8.050;2023-05-29T14:12:38;0.20;;;0.20;;
25187;SDS011;13141;50.414;8.050;2023-05-29T14:15:04;0.30;;;0.30;;
25187;SDS011;13141;50.414;8.050;2023-05-29T14:17:30;0.30;;;0.30;;
25187;SDS011;13141;50.414;8.050;2023-05-29T14:19:57;0.30;;;0.30;;
25187;SDS011;13141;50.414;8.050;2023-05-29T14:22:22;0.37;;;0.37;;
25187;SDS011;13141;50.414;8.050;2023-05-29T14:24:49;0.20;;;0.20;;
25187;SDS011;13141;50.414;8.050;2023-05-29T14:27:15;0.20;;;0.20;;
25187;SDS011;13141;50.414;8.050;2023-05-29T14:29:43;0.20;;;0.20;;
25187;SDS011;13141;50.414;8.050;2023-05-29T14:32:08;0.30;;;0.30;;
25187;SDS011;13141;50.414;8.050;2023-05-29T14:34:34;0.30;;;0.30;;
25187;SDS011;13141;50.414;8.050;2023-05-29T14:37:00;0.30;;;0.30;;
25187;SDS011;13141;50.414;8.050;2023-05-29T14:39:25;0.30;;;0.30;;
25187;SDS011;13141;50.414;8.050;2023-05-29T14:41:52;0.22;;;0.22;;
25187;SDS011;13141;50.414;8.050;2023-05-29T14:44:18;0.20;;;0.20;;
25187;SDS011;13141;50.414;8.050;2023-05-29T14:46:44;0.30;;;0.30;;
25187;SDS011;13141;50.414;8.050;2023-05-29T14:49:09;0.30;;;0.30;;